CJS5 weather

Killarney Municipal Airport
Killarney, Manitoba, Canada

Public forecast

Using degrees Celsius for public forecast. Weather courtesy of forecast.io.

METAR (pilot weather report)

Closest report is Rolla Municipal Airport, 16.3 nm (30.2 km) S. Retrieved 2019/05/21 09:15 UTC (0 seconds ago):

K06D 210915Z AUTO 30003KT 10SM CLR M00/M05 A3010 RMK AO2 LTG DSNT SW

TAF (pilot weather forecast)

Closest forecast is Brandon Municipal Airport, 46.7 nm (86.4 km) NNW. Retrieved 2019/05/21 06:42 UTC (2 hours ago):

TAF CYBR 210538Z 2106/2118 06008KT P6SM FEW250 BECMG 2108/2110 VRB03KT BECMG 2113/2115 08010KT FM211700 09015KT P6SM SCT170 RMK NXT FCST BY 211200Z